Time;durP1;ratioP1;P1;durP2;ratioP2;P2;SDS_P1;SDS_P2;PMS_P1;PMS_P2;Temp;Humidity;BMP_temperature;BMP_pressure;BME280_temperature;BME280_humidity;BME280_pressure;Samples;Min_cycle;Max_cycle;Signal;HPM_P1;HPM_P2
2022/07/31 04:01:55;;;;;;;1.70;0.82;;;19.70;76.00;;;;;;5577399;23;94404;-69
2022/07/31 04:04:21;;;;;;;2.45;0.45;;;19.50;76.50;;;;;;4910990;28;92145;-71
2022/07/31 04:06:47;;;;;;;1.90;0.73;;;19.50;76.10;;;;;;4919001;28;92265;-71
2022/07/31 04:09:12;;;;;;;2.80;0.50;;;19.40;77.30;;;;;;4918838;28;91876;-69
2022/07/31 04:11:38;;;;;;;1.52;0.63;;;19.30;77.70;;;;;;4901969;28;92247;-71
2022/07/31 04:14:04;;;;;;;3.20;0.70;;;19.40;77.70;;;;;;4898993;28;92065;-71
2022/07/31 04:16:29;;;;;;;2.63;0.52;;;19.40;76.90;;;;;;4898134;28;92732;-70
2022/07/31 04:18:55;;;;;;;2.45;0.70;;;19.50;77.40;;;;;;4904300;28;91450;-69
2022/07/31 04:21:21;;;;;;;2.30;0.60;;;19.40;77.30;;;;;;4911541;28;92078;-70
2022/07/31 04:23:46;;;;;;;2.22;0.60;;;19.40;77.70;;;;;;4899359;28;92032;-68
2022/07/31 04:26:12;;;;;;;2.42;0.70;;;19.40;76.90;;;;;;4898977;28;93323;-70
2022/07/31 04:28:38;;;;;;;1.73;0.60;;;19.40;76.90;;;;;;4897979;28;92130;-70
2022/07/31 04:31:03;;;;;;;2.13;0.55;;;19.50;76.80;;;;;;4899467;28;92097;-69
2022/07/31 04:33:29;;;;;;;1.60;0.60;;;19.60;76.80;;;;;;4899007;28;91965;-71
2022/07/31 04:35:55;;;;;;;3.00;0.45;;;19.60;76.90;;;;;;4903322;28;92261;-71
2022/07/31 04:38:20;;;;;;;4.28;0.70;;;19.70;76.30;;;;;;4918338;28;92745;-70
2022/07/31 04:40:48;;;;;;;2.30;0.70;;;19.70;75.70;;;;;;4918696;28;92146;-69
2022/07/31 04:43:15;;;;;;;1.55;0.52;;;19.70;75.40;;;;;;4900146;28;91811;-70
2022/07/31 04:45:41;;;;;;;3.60;0.55;;;19.70;74.90;;;;;;4897841;28;92244;-69
2022/07/31 04:48:07;;;;;;;1.80;0.60;;;19.80;74.00;;;;;;4898755;28;91758;-71
2022/07/31 04:50:34;;;;;;;2.30;0.60;;;19.80;74.80;;;;;;4898883;28;93029;-70
2022/07/31 04:53:00;;;;;;;2.63;0.63;;;19.80;75.20;;;;;;4898389;28;91921;-69
2022/07/31 04:55:26;;;;;;;2.20;0.80;;;19.70;75.00;;;;;;4897931;28;92115;-70
2022/07/31 04:57:51;;;;;;;2.45;0.55;;;19.80;75.20;;;;;;4898693;28;93210;-70
2022/07/31 05:00:17;;;;;;;1.55;0.63;;;19.80;74.80;;;;;;4898756;28;92020;-70
2022/07/31 05:02:43;;;;;;;3.22;0.70;;;19.80;75.10;;;;;;4897591;28;92251;-72
2022/07/31 05:05:09;;;;;;;1.65;0.50;;;19.80;74.90;;;;;;4879534;28;92608;-70
2022/07/31 05:07:34;;;;;;;2.25;0.55;;;19.90;75.20;;;;;;4880052;28;91352;-70
2022/07/31 05:10:00;;;;;;;4.78;0.47;;;19.90;74.90;;;;;;4888403;28;92010;-71
2022/07/31 05:12:26;;;;;;;4.25;0.50;;;19.90;74.80;;;;;;4898923;28;92161;-69
2022/07/31 05:14:52;;;;;;;1.95;0.55;;;19.90;75.30;;;;;;4898315;28;93001;-68
2022/07/31 05:17:18;;;;;;;4.47;0.60;;;19.90;75.40;;;;;;4898810;28;93240;-69
2022/07/31 05:19:43;;;;;;;1.90;0.80;;;19.80;75.00;;;;;;4891155;28;92335;-70
2022/07/31 05:22:10;;;;;;;3.72;0.47;;;19.80;76.60;;;;;;4882204;28;91945;-71
2022/07/31 05:24:36;;;;;;;2.30;0.82;;;19.80;74.90;;;;;;4879968;28;92503;-70
2022/07/31 05:27:02;;;;;;;3.63;0.82;;;19.80;74.30;;;;;;4880086;28;91949;-70
2022/07/31 05:29:29;;;;;;;2.42;0.63;;;19.80;74.40;;;;;;4879366;28;92051;-69
2022/07/31 05:31:55;;;;;;;1.73;0.50;;;20.00;74.20;;;;;;4861533;29;91291;-70
2022/07/31 05:34:21;;;;;;;1.85;0.65;;;20.20;73.50;;;;;;4861055;29;93353;-70
2022/07/31 05:36:47;;;;;;;2.25;0.60;;;20.30;73.50;;;;;;4860679;29;92380;-71
2022/07/31 05:39:12;;;;;;;1.75;0.63;;;20.60;72.50;;;;;;4871765;28;93012;-69
2022/07/31 05:41:38;;;;;;;2.33;0.40;;;21.00;71.90;;;;;;4878477;28;92179;-70
2022/07/31 05:44:04;;;;;;;3.67;0.70;;;22.40;69.10;;;;;;4885341;28;92441;-69
2022/07/31 05:46:30;;;;;;;1.60;0.50;;;23.70;65.50;;;;;;4898919;28;92539;-71
2022/07/31 05:48:55;;;;;;;1.52;0.50;;;24.90;61.00;;;;;;4899419;28;92406;-70
2022/07/31 05:51:21;;;;;;;1.10;0.50;;;25.80;59.70;;;;;;4899751;28;91773;-71
2022/07/31 05:53:47;;;;;;;4.35;0.60;;;26.20;58.80;;;;;;4870689;28;92461;-69
2022/07/31 05:56:13;;;;;;;3.58;0.80;;;25.70;58.30;;;;;;4861247;29;91820;-70
2022/07/31 05:58:38;;;;;;;1.20;0.70;;;25.60;59.50;;;;;;4861253;28;92629;-69
2022/07/31 06:01:05;;;;;;;4.72;1.35;;;26.00;58.10;;;;;;4861040;29;92528;-70
2022/07/31 06:03:34;;;;;;;2.60;0.68;;;26.50;58.20;;;;;;4860258;29;93073;-69
2022/07/31 06:06:01;;;;;;;;;;;26.90;58.10;;;;;;4879876;28;92824;-72
2022/07/31 06:08:27;;;;;;;1.48;0.63;;;26.60;57.70;;;;;;4900010;28;92129;-71
2022/07/31 06:10:53;;;;;;;2.13;0.82;;;26.40;57.90;;;;;;4898898;28;92073;-69
2022/07/31 06:13:24;;;;;;;1.70;0.80;;;26.60;58.30;;;;;;4898882;28;93673;-69
2022/07/31 06:15:49;;;;;;;1.95;0.85;;;28.00;57.30;;;;;;4899408;28;92524;-69
2022/07/31 06:18:15;;;;;;;3.25;0.70;;;30.10;55.00;;;;;;4886007;28;91938;-73
2022/07/31 06:20:41;;;;;;;3.55;0.93;;;31.70;50.70;;;;;;4898987;28;91378;-74
2022/07/31 06:23:06;;;;;;;1.40;0.60;;;33.10;49.10;;;;;;4897596;28;93237;-70
2022/07/31 06:25:32;;;;;;;2.47;0.75;;;33.80;47.60;;;;;;4881595;28;92129;-70
2022/07/31 06:27:58;;;;;;;2.22;0.95;;;33.70;44.60;;;;;;4879546;28;93111;-72
2022/07/31 06:30:24;;;;;;;1.88;1.02;;;34.00;45.60;;;;;;4884418;28;92623;-71
2022/07/31 06:32:49;;;;;;;3.60;1.35;;;35.30;44.60;;;;;;4895214;28;92009;-71
2022/07/31 06:35:15;;;;;;;2.28;1.00;;;35.00;42.80;;;;;;4898652;28;92656;-72
2022/07/31 06:37:41;;;;;;;3.08;1.10;;;33.40;43.60;;;;;;4899124;28;92443;-72
2022/07/31 06:40:07;;;;;;;1.77;0.95;;;33.40;44.40;;;;;;4898586;28;92052;-73
2022/07/31 06:42:33;;;;;;;2.53;0.90;;;34.20;43.50;;;;;;4891084;28;92920;-73
2022/07/31 06:44:58;;;;;;;1.48;0.65;;;35.00;43.50;;;;;;4879145;28;91418;-70
2022/07/31 06:47:25;;;;;;;2.47;1.30;;;36.50;40.90;;;;;;4878232;28;92683;-71
2022/07/31 06:49:51;;;;;;;2.38;1.08;;;36.40;40.00;;;;;;4876237;28;92818;-71
2022/07/31 06:52:17;;;;;;;2.60;1.17;;;36.70;40.00;;;;;;4878947;28;93004;-72
2022/07/31 06:54:43;;;;;;;1.95;1.25;;;37.50;40.10;;;;;;4878586;28;93798;-71
2022/07/31 06:57:10;;;;;;;3.03;1.50;;;38.50;39.10;;;;;;4879600;28;92564;-71
2022/07/31 06:59:36;;;;;;;1.77;1.08;;;39.30;37.60;;;;;;4878459;28;92069;-71
2022/07/31 07:02:02;;;;;;;2.05;1.65;;;39.80;35.70;;;;;;4888044;28;93591;-70
2022/07/31 07:04:28;;;;;;;1.50;1.30;;;40.00;35.20;;;;;;4879212;28;91773;-74
2022/07/31 07:06:54;;;;;;;2.70;2.30;;;39.10;37.30;;;;;;4879147;28;92114;-74
2022/07/31 07:09:20;;;;;;;2.25;1.52;;;39.90;36.60;;;;;;4878973;28;90865;-76
2022/07/31 07:11:46;;;;;;;2.25;1.48;;;40.40;36.80;;;;;;4898268;28;92314;-72
2022/07/31 07:14:12;;;;;;;2.38;1.60;;;40.90;36.50;;;;;;4897536;28;92413;-71
2022/07/31 07:16:38;;;;;;;2.22;1.75;;;40.60;35.40;;;;;;4895653;28;92979;-70
2022/07/31 07:19:04;;;;;;;2.38;1.73;;;39.30;37.10;;;;;;4878784;28;92140;-74
2022/07/31 07:21:30;;;;;;;2.25;1.80;;;39.50;37.40;;;;;;4892610;28;92179;-77
2022/07/31 07:23:56;;;;;;;2.65;1.67;;;40.10;36.70;;;;;;4886111;28;92858;-73
2022/07/31 07:26:22;;;;;;;2.85;1.33;;;40.60;36.30;;;;;;4866919;28;92055;-72
2022/07/31 07:28:47;;;;;;;2.95;2.13;;;41.60;35.00;;;;;;4888101;28;92460;-72
2022/07/31 07:31:13;;;;;;;4.40;2.42;;;41.90;35.40;;;;;;4877687;28;92022;-76
2022/07/31 07:33:39;;;;;;;5.15;2.42;;;42.90;35.20;;;;;;4878247;28;93249;-73
2022/07/31 07:36:05;;;;;;;2.42;2.22;;;43.90;35.10;;;;;;4877691;28;92401;-72
2022/07/31 07:38:30;;;;;;;3.95;1.92;;;45.00;33.10;;;;;;4877240;28;92125;-73
2022/07/31 07:40:56;;;;;;;3.60;1.75;;;45.60;33.30;;;;;;4875719;28;93936;-73
2022/07/31 07:43:22;;;;;;;2.90;2.17;;;45.60;31.80;;;;;;4876863;28;95211;-75
2022/07/31 07:45:47;;;;;;;4.57;2.40;;;46.00;32.10;;;;;;4876131;28;92061;-74
2022/07/31 07:48:13;;;;;;;2.95;1.85;;;46.50;31.10;;;;;;4876608;28;92019;-76
2022/07/31 07:50:39;;;;;;;4.72;2.90;;;46.90;30.90;;;;;;4891961;28;92125;-72
2022/07/31 07:53:04;;;;;;;5.15;3.03;;;47.30;30.80;;;;;;4877139;28;92510;-72
2022/07/31 07:55:30;;;;;;;3.88;2.88;;;47.70;30.70;;;;;;4876640;28;92139;-71
2022/07/31 07:57:56;;;;;;;4.00;3.58;;;48.00;29.90;;;;;;4877672;28;91421;-72
2022/07/31 08:00:22;;;;;;;3.53;3.22;;;48.10;30.50;;;;;;4875910;28;92200;-72
2022/07/31 08:02:47;;;;;;;3.65;2.92;;;47.90;30.00;;;;;;4877556;28;92879;-73
2022/07/31 08:05:14;;;;;;;3.70;3.08;;;48.40;29.70;;;;;;4875113;28;93482;-76
2022/07/31 08:07:41;;;;;;;4.38;3.25;;;48.80;29.60;;;;;;4876922;28;92120;-73
2022/07/31 08:10:08;;;;;;;3.70;3.40;;;48.50;29.90;;;;;;4878890;28;92642;-75
2022/07/31 08:12:34;;;;;;;4.28;3.53;;;49.00;29.60;;;;;;4881391;28;93367;-77
2022/07/31 08:15:01;;;;;;;3.47;3.17;;;49.00;29.20;;;;;;4884083;28;92122;-74
2022/07/31 08:17:27;;;;;;;4.43;3.08;;;48.50;29.40;;;;;;4876688;28;92032;-73
2022/07/31 08:19:52;;;;;;;3.92;3.55;;;48.10;29.40;;;;;;4876707;28;91810;-76
2022/07/31 08:22:18;;;;;;;4.13;3.75;;;49.00;29.40;;;;;;4875771;28;92310;-69
2022/07/31 08:24:44;;;;;;;5.97;5.32;;;50.00;29.30;;;;;;4895637;28;91978;-76
2022/07/31 08:27:24;;;;;;;6.03;4.50;;;50.20;28.60;;;;;;4895252;28;91960;-74
2022/07/31 08:29:51;;;;;;;4.43;3.95;;;50.50;28.30;;;;;;4894387;28;93662;-74
2022/07/31 08:32:17;;;;;;;6.85;5.38;;;50.60;28.20;;;;;;4894983;28;92102;-77
2022/07/31 08:34:42;;;;;;;7.38;4.13;;;50.10;27.80;;;;;;4894916;28;92026;-71
2022/07/31 08:37:08;;;;;;;4.70;3.92;;;49.40;29.40;;;;;;4898392;28;92423;-71
2022/07/31 08:39:35;;;;;;;5.00;4.55;;;49.40;28.70;;;;;;4897585;28;93956;-74
2022/07/31 08:42:08;;;;;;;7.22;5.00;;;49.80;28.50;;;;;;4897976;28;93071;-73
2022/07/31 08:44:38;;;;;;;4.80;4.13;;;48.10;28.30;;;;;;4898389;28;92179;-72
2022/07/31 08:47:11;;;;;;;3.70;3.40;;;47.10;29.80;;;;;;4896419;28;91437;-78
2022/07/31 08:49:39;;;;;;;4.72;4.10;;;46.20;30.00;;;;;;4898427;28;92681;-76
2022/07/31 08:52:08;;;;;;;3.75;2.28;;;43.30;31.50;;;;;;4898201;28;92036;-75
2022/07/31 08:54:35;;;;;;;2.45;2.15;;;41.50;33.90;;;;;;4897724;28;93066;-74
2022/07/31 08:57:02;;;;;;;3.25;2.45;;;41.90;33.70;;;;;;4896499;28;92106;-76
2022/07/31 08:59:28;;;;;;;3.38;2.22;;;43.30;32.60;;;;;;4898437;28;92752;-73
2022/07/31 09:01:56;;;;;;;2.92;2.58;;;44.90;31.70;;;;;;4896548;28;93011;-76
2022/07/31 09:04:24;;;;;;;2.88;2.58;;;47.40;31.00;;;;;;4897557;28;92058;-74
2022/07/31 09:06:50;;;;;;;4.82;3.65;;;47.60;28.60;;;;;;4897282;28;93461;-74
2022/07/31 09:09:17;;;;;;;5.88;4.70;;;47.70;29.90;;;;;;4895965;28;92364;-73
2022/07/31 09:11:52;;;;;;;5.10;4.60;;;49.10;29.10;;;;;;4897633;28;92518;-73
2022/07/31 09:14:30;;;;;;;5.10;3.88;;;50.60;29.10;;;;;;4897167;28;92133;-73
2022/07/31 09:16:57;;;;;;;5.88;4.50;;;50.70;29.10;;;;;;4897411;28;92004;-73
2022/07/31 09:19:34;;;;;;;4.65;4.07;;;49.90;27.90;;;;;;4896733;28;94156;-73
2022/07/31 09:21:59;;;;;;;4.95;4.55;;;48.10;28.40;;;;;;4894311;28;92756;-71
2022/07/31 09:24:28;;;;;;;6.43;5.93;;;47.30;29.70;;;;;;4897783;28;92053;-72
2022/07/31 09:27:08;;;;;;;7.65;5.68;;;48.80;28.30;;;;;;4896937;28;92527;-71
2022/07/31 09:29:42;;;;;;;5.65;5.18;;;48.50;28.30;;;;;;4897212;28;91820;-75
2022/07/31 09:32:12;;;;;;;5.20;4.68;;;48.90;28.20;;;;;;4895836;28;92431;-74
2022/07/31 09:34:39;;;;;;;6.43;4.38;;;46.90;28.80;;;;;;4897792;28;92096;-71
2022/07/31 09:37:16;;;;;;;6.28;3.38;;;44.40;29.50;;;;;;4897855;28;91596;-74
2022/07/31 09:39:50;;;;;;;3.83;3.47;;;44.70;29.10;;;;;;4896927;28;92544;-76
2022/07/31 09:42:16;;;;;;;4.40;3.13;;;45.70;29.30;;;;;;4895963;28;92160;-72
2022/07/31 09:44:44;;;;;;;5.40;3.88;;;48.00;28.40;;;;;;4896684;28;94007;-75
2022/07/31 09:47:25;;;;;;;4.10;3.80;;;49.30;27.10;;;;;;4897223;28;92103;-75
2022/07/31 09:49:53;;;;;;;5.70;4.10;;;45.80;29.00;;;;;;4896679;28;92203;-73
2022/07/31 09:52:19;;;;;;;7.13;4.53;;;47.50;27.70;;;;;;4896974;28;92793;-74
2022/07/31 09:54:45;;;;;;;5.32;4.20;;;47.20;28.20;;;;;;4895719;28;92069;-73
2022/07/31 09:57:14;;;;;;;5.22;4.75;;;48.50;28.10;;;;;;4896681;28;92128;-73
2022/07/31 09:59:40;;;;;;;3.95;3.65;;;49.90;27.40;;;;;;4896807;28;92821;-71
2022/07/31 10:02:07;;;;;;;6.45;4.50;;;50.90;27.60;;;;;;4896690;28;91931;-73
2022/07/31 10:04:37;;;;;;;6.72;5.18;;;52.00;27.30;;;;;;4896504;28;92176;-72
2022/07/31 10:07:04;;;;;;;4.93;4.53;;;52.90;27.50;;;;;;4895043;28;92167;-72
2022/07/31 10:09:32;;;;;;;5.82;5.32;;;52.10;26.70;;;;;;4896062;28;93066;-71
2022/07/31 10:12:00;;;;;;;5.32;4.82;;;50.40;28.10;;;;;;4858961;29;93828;-70
2022/07/31 10:14:40;;;;;;;5.80;5.30;;;51.40;27.10;;;;;;4858958;29;91972;-74
2022/07/31 10:17:06;;;;;;;6.13;5.13;;;50.10;27.50;;;;;;4871723;28;92181;-73
2022/07/31 10:19:35;;;;;;;6.63;5.93;;;47.70;29.30;;;;;;4895860;28;93476;-73
2022/07/31 10:22:04;;;;;;;4.00;3.65;;;45.50;30.10;;;;;;4897185;28;92084;-71
2022/07/31 10:24:34;;;;;;;4.85;4.35;;;43.30;33.40;;;;;;4897669;28;92056;-70
2022/07/31 10:27:00;;;;;;;3.95;3.63;;;41.90;33.70;;;;;;4897694;28;91380;-73
2022/07/31 10:29:26;;;;;;;4.18;3.38;;;39.90;35.30;;;;;;4892360;28;92128;-79
2022/07/31 10:31:52;;;;;;;3.60;2.92;;;38.30;36.00;;;;;;4897908;28;92171;-73
2022/07/31 10:34:19;;;;;;;3.05;2.78;;;36.60;40.80;;;;;;4898428;28;92885;-71
2022/07/31 10:36:48;;;;;;;4.72;2.65;;;35.40;41.10;;;;;;4899369;28;92404;-71
2022/07/31 10:39:27;;;;;;;3.65;2.75;;;34.10;41.00;;;;;;4898561;28;92718;-72
2022/07/31 10:42:05;;;;;;;5.60;1.60;;;33.50;41.50;;;;;;4898100;28;92927;-71
2022/07/31 10:44:39;;;;;;;3.63;1.48;;;33.20;43.00;;;;;;4898865;28;92203;-71
2022/07/31 10:47:12;;;;;;;2.83;1.63;;;33.30;44.20;;;;;;4899082;28;92398;-71
2022/07/31 10:49:43;;;;;;;5.07;1.60;;;33.20;44.70;;;;;;4897778;28;93159;-77
2022/07/31 10:52:10;;;;;;;3.97;1.48;;;32.60;46.70;;;;;;4898590;28;91981;-71
2022/07/31 10:54:41;;;;;;;3.05;1.60;;;32.40;45.90;;;;;;4882785;28;92403;-73
2022/07/31 10:57:07;;;;;;;6.15;1.40;;;32.50;45.80;;;;;;4878400;28;92070;-71
2022/07/31 10:59:32;;;;;;;2.03;1.10;;;32.50;46.10;;;;;;4878835;28;93337;-72
2022/07/31 11:01:58;;;;;;;2.90;1.23;;;32.80;42.50;;;;;;4878749;28;92180;-72
2022/07/31 11:04:33;;;;;;;2.17;1.27;;;32.60;42.40;;;;;;4891178;28;91980;-71
2022/07/31 11:06:59;;;;;;;2.30;1.08;;;31.60;44.00;;;;;;4899326;28;92294;-70
2022/07/31 11:09:27;;;;;;;3.58;1.27;;;31.40;46.90;;;;;;4898785;28;92279;-72
2022/07/31 11:11:53;;;;;;;2.90;1.35;;;30.90;46.50;;;;;;4898981;28;92517;-70
2022/07/31 11:14:37;;;;;;;2.42;1.40;;;31.00;45.20;;;;;;4898851;28;92207;-69
2022/07/31 11:17:03;;;;;;;3.53;1.00;;;31.00;46.10;;;;;;4896537;28;91044;-72
2022/07/31 11:19:42;;;;;;;2.45;1.40;;;31.30;45.80;;;;;;4898595;28;92067;-70
2022/07/31 11:22:13;;;;;;;1.63;0.95;;;31.40;44.60;;;;;;4898858;28;92450;-70
2022/07/31 11:24:39;;;;;;;2.15;1.33;;;31.30;44.40;;;;;;4896669;28;93200;-70
2022/07/31 11:27:05;;;;;;;2.65;0.88;;;31.50;43.60;;;;;;4879742;28;92570;-73
2022/07/31 11:29:37;;;;;;;2.72;0.80;;;31.30;43.50;;;;;;4879467;28;93217;-76
2022/07/31 11:32:05;;;;;;;4.10;1.35;;;31.10;45.00;;;;;;4898525;28;92832;-71
2022/07/31 11:34:54;;;;;;;3.03;1.20;;;30.90;46.80;;;;;;4898737;28;92545;-70
2022/07/31 11:37:23;;;;;;;3.80;1.27;;;30.80;46.10;;;;;;4898964;28;91975;-73
2022/07/31 11:39:51;;;;;;;3.63;1.30;;;30.70;46.90;;;;;;4895382;28;93523;-73
2022/07/31 11:42:18;;;;;;;3.92;1.00;;;30.50;48.30;;;;;;4880703;28;91458;-71
2022/07/31 11:44:44;;;;;;;3.60;0.85;;;30.70;45.50;;;;;;4879690;28;92237;-70
2022/07/31 11:47:10;;;;;;;2.13;0.88;;;30.70;45.30;;;;;;4868490;28;92875;-71
2022/07/31 11:49:36;;;;;;;3.90;1.35;;;30.60;45.30;;;;;;4877167;28;92908;-71
2022/07/31 11:52:08;;;;;;;3.10;1.00;;;30.80;44.30;;;;;;4874597;28;92069;-75
2022/07/31 11:54:34;;;;;;;2.05;1.00;;;30.80;43.20;;;;;;4878318;28;92177;-73
2022/07/31 11:57:01;;;;;;;1.65;0.80;;;31.00;42.70;;;;;;4877472;28;93706;-71
2022/07/31 11:59:38;;;;;;;3.85;1.23;;;31.20;43.60;;;;;;4878593;28;92072;-70
2022/07/31 12:02:09;;;;;;;2.65;1.15;;;31.30;42.20;;;;;;4878003;28;92253;-71
2022/07/31 12:04:36;;;;;;;3.70;1.42;;;31.30;41.90;;;;;;4877319;28;92089;-71
2022/07/31 12:07:03;;;;;;;3.63;1.17;;;31.10;42.80;;;;;;4888441;28;91312;-73
2022/07/31 12:09:30;;;;;;;3.67;1.17;;;31.10;42.70;;;;;;4898199;28;92308;-70
2022/07/31 12:11:56;;;;;;;3.22;1.17;;;30.90;44.40;;;;;;4901584;28;92595;-70
2022/07/31 12:14:35;;;;;;;1.73;1.15;;;30.70;44.60;;;;;;4900796;28;93047;-71
2022/07/31 12:17:03;;;;;;;2.67;1.20;;;30.30;47.90;;;;;;4889181;28;91778;-70
2022/07/31 12:19:32;;;;;;;2.83;1.30;;;30.40;43.60;;;;;;4881974;28;93226;-72
2022/07/31 12:21:58;;;;;;;4.45;1.48;;;30.50;43.30;;;;;;4882016;28;92836;-71
2022/07/31 12:24:25;;;;;;;2.08;0.93;;;30.60;44.80;;;;;;4882013;28;92263;-70
2022/07/31 12:26:58;;;;;;;3.75;1.00;;;30.70;47.20;;;;;;4881527;28;92003;-71
2022/07/31 12:29:37;;;;;;;3.25;1.13;;;30.60;45.20;;;;;;4893578;28;92140;-76
2022/07/31 12:32:04;;;;;;;1.67;0.80;;;30.20;46.50;;;;;;4901017;28;92882;-71
2022/07/31 12:34:36;;;;;;;5.63;1.17;;;30.40;46.30;;;;;;4901981;28;92472;-71
2022/07/31 12:37:10;;;;;;;6.03;1.55;;;30.20;46.60;;;;;;4900966;28;91908;-72
2022/07/31 12:39:56;;;;;;;4.85;1.13;;;29.60;48.50;;;;;;4900389;28;93656;-71
2022/07/31 12:42:26;;;;;;;2.65;0.95;;;29.90;48.80;;;;;;4900623;28;98504;-73
2022/07/31 12:44:54;;;;;;;3.90;1.13;;;30.30;49.00;;;;;;4901467;28;92041;-70
2022/07/31 12:47:25;;;;;;;2.47;1.20;;;30.50;47.10;;;;;;4901071;28;92308;-70
2022/07/31 12:49:51;;;;;;;4.47;1.08;;;30.40;46.80;;;;;;4900647;28;92691;-70
2022/07/31 12:52:18;;;;;;;2.63;1.08;;;30.20;46.10;;;;;;4898817;28;92821;-71
2022/07/31 12:54:44;;;;;;;3.10;0.95;;;29.60;46.70;;;;;;4901103;28;92159;-71
2022/07/31 12:57:10;;;;;;;1.88;1.38;;;29.80;47.70;;;;;;4901506;28;91592;-70
2022/07/31 12:59:36;;;;;;;5.13;1.15;;;30.20;48.80;;;;;;4900108;28;92083;-72
2022/07/31 13:02:03;;;;;;;2.83;1.35;;;30.20;46.10;;;;;;4895923;28;92348;-71
2022/07/31 13:04:28;;;;;;;3.50;0.95;;;30.00;45.80;;;;;;4881214;28;93319;-72
2022/07/31 13:06:54;;;;;;;2.25;1.08;;;30.00;47.20;;;;;;4892417;28;92078;-70
2022/07/31 13:09:20;;;;;;;1.83;1.13;;;30.50;48.30;;;;;;4900248;28;93301;-77
2022/07/31 13:11:46;;;;;;;2.25;0.90;;;30.20;46.70;;;;;;4900515;28;92199;-70
2022/07/31 13:14:11;;;;;;;6.63;0.90;;;30.50;47.40;;;;;;4900694;28;92735;-70
2022/07/31 13:16:37;;;;;;;2.00;0.95;;;30.90;50.30;;;;;;4890384;28;91997;-72
2022/07/31 13:19:04;;;;;;;3.05;1.08;;;30.90;44.70;;;;;;4881137;28;91575;-70
2022/07/31 13:21:30;;;;;;;3.72;1.00;;;30.80;46.00;;;;;;4880980;28;91967;-71
2022/07/31 13:23:57;;;;;;;2.22;1.13;;;30.70;46.70;;;;;;4881235;28;92565;-70
2022/07/31 13:26:22;;;;;;;1.67;0.85;;;30.70;47.40;;;;;;4881268;28;92451;-70
2022/07/31 13:28:48;;;;;;;2.17;1.63;;;30.60;48.00;;;;;;4888875;28;93564;-71
2022/07/31 13:31:14;;;;;;;4.78;1.23;;;30.60;45.40;;;;;;4886439;28;92008;-71
2022/07/31 13:33:39;;;;;;;3.03;1.00;;;30.10;47.20;;;;;;4881134;28;92630;-70
2022/07/31 13:36:05;;;;;;;3.63;1.05;;;29.80;47.70;;;;;;4880986;28;92034;-70
2022/07/31 13:38:31;;;;;;;4.90;1.42;;;29.90;50.60;;;;;;4880691;28;93448;-70
2022/07/31 13:43:42;;;;;;;2.53;1.02;;;29.70;47.50;;;;;;4900799;28;91937;-70
2022/07/31 13:46:07;;;;;;;2.22;1.05;;;29.80;47.90;;;;;;4900759;28;91362;-71
2022/07/31 13:48:34;;;;;;;2.55;0.85;;;30.00;50.80;;;;;;4899751;28;92569;-72
2022/07/31 13:51:00;;;;;;;2.50;0.90;;;30.40;49.30;;;;;;4898096;28;92372;-71
2022/07/31 13:53:26;;;;;;;3.50;1.20;;;30.50;47.50;;;;;;4899526;28;92915;-71
2022/07/31 13:55:53;;;;;;;2.38;1.20;;;30.80;50.00;;;;;;4900204;28;92024;-69
2022/07/31 13:58:19;;;;;;;2.53;1.10;;;30.90;46.80;;;;;;4874384;28;94387;-72
2022/07/31 14:00:45;;;;;;;3.03;1.10;;;30.90;45.40;;;;;;4861128;29;92238;-73
2022/07/31 14:03:11;;;;;;;1.90;1.13;;;30.50;47.00;;;;;;4861420;29;91949;-70
2022/07/31 14:05:38;;;;;;;4.03;1.05;;;30.50;47.30;;;;;;4861692;29;92357;-70
2022/07/31 14:08:04;;;;;;;2.20;0.98;;;30.60;47.00;;;;;;4863755;28;92249;-71
2022/07/31 14:10:30;;;;;;;1.83;0.93;;;29.80;47.20;;;;;;4899985;28;91970;-71
2022/07/31 14:12:56;;;;;;;2.80;1.40;;;29.60;48.80;;;;;;4887948;28;91726;-71
2022/07/31 14:15:22;;;;;;;3.95;1.10;;;29.90;48.70;;;;;;4880671;28;92021;-71
2022/07/31 14:17:48;;;;;;;3.33;1.08;;;30.50;47.60;;;;;;4880091;28;93559;-71
2022/07/31 14:20:14;;;;;;;4.88;0.93;;;30.60;45.40;;;;;;4879717;28;93923;-72
2022/07/31 14:22:41;;;;;;;2.97;0.90;;;30.10;47.60;;;;;;4887266;28;92131;-73
2022/07/31 14:25:07;;;;;;;3.92;1.55;;;30.10;48.00;;;;;;4899440;28;91765;-75
2022/07/31 14:27:33;;;;;;;2.22;0.75;;;30.10;48.70;;;;;;4899578;28;92244;-71
2022/07/31 14:30:00;;;;;;;4.90;1.23;;;29.90;45.40;;;;;;4898540;28;92156;-71
2022/07/31 14:32:28;;;;;;;2.83;0.85;;;30.00;46.30;;;;;;4898783;28;92396;-70
2022/07/31 14:34:54;;;;;;;1.70;0.70;;;30.00;49.20;;;;;;4891716;28;91078;-70
2022/07/31 14:37:19;;;;;;;3.53;0.80;;;30.20;48.40;;;;;;4878927;28;93620;-72
2022/07/31 14:39:45;;;;;;;2.75;0.93;;;30.40;49.20;;;;;;4879888;28;91950;-70
2022/07/31 14:42:11;;;;;;;2.72;1.20;;;30.50;47.00;;;;;;4879488;28;93111;-73
2022/07/31 14:44:38;;;;;;;4.47;0.85;;;30.60;47.30;;;;;;4883868;28;92439;-71
2022/07/31 14:47:04;;;;;;;2.22;0.90;;;30.80;47.90;;;;;;4898330;28;92330;-70
2022/07/31 14:49:31;;;;;;;2.22;1.10;;;30.90;49.00;;;;;;4899301;28;91955;-70
2022/07/31 14:51:56;;;;;;;1.48;0.93;;;30.90;48.60;;;;;;4899026;28;91961;-72
2022/07/31 14:54:22;;;;;;;1.95;0.80;;;31.00;46.90;;;;;;4899541;28;92382;-69
2022/07/31 14:56:48;;;;;;;1.92;0.80;;;31.00;48.90;;;;;;4897351;28;92000;-72
2022/07/31 14:59:13;;;;;;;1.95;1.13;;;30.90;47.60;;;;;;4899096;28;91191;-71
2022/07/31 15:01:39;;;;;;;2.15;0.73;;;31.10;46.80;;;;;;4898825;28;92058;-72
2022/07/31 15:04:05;;;;;;;2.25;0.90;;;31.20;46.20;;;;;;4898861;28;91985;-70
2022/07/31 15:06:31;;;;;;;2.00;0.77;;;31.50;47.00;;;;;;4895207;28;92765;-70
2022/07/31 15:08:57;;;;;;;8.95;2.13;;;31.60;43.70;;;;;;4881445;28;93748;-70
2022/07/31 15:11:22;;;;;;;1.98;0.65;;;31.50;46.20;;;;;;4898994;28;92328;-71
2022/07/31 15:13:48;;;;;;;2.00;1.08;;;31.80;44.00;;;;;;4897923;28;91967;-72
2022/07/31 15:16:14;;;;;;;10.10;1.73;;;31.80;45.00;;;;;;4897847;28;92143;-70
2022/07/31 15:18:40;;;;;;;1.35;0.75;;;31.80;46.00;;;;;;4898521;28;92663;-70
2022/07/31 15:21:09;;;;;;;1.77;0.68;;;31.60;45.10;;;;;;4898580;28;91935;-74
2022/07/31 15:23:36;;;;;;;1.63;1.00;;;31.40;47.80;;;;;;4897127;28;91773;-70
2022/07/31 15:26:01;;;;;;;1.98;1.10;;;31.20;47.00;;;;;;4897398;28;92061;-73
2022/07/31 15:28:27;;;;;;;2.38;0.93;;;31.00;45.40;;;;;;4898705;28;92994;-69
2022/07/31 15:30:53;;;;;;;4.65;1.05;;;30.90;47.10;;;;;;4897929;28;92927;-72
2022/07/31 15:33:18;;;;;;;2.83;1.10;;;30.70;47.40;;;;;;4898411;28;92440;-71
2022/07/31 15:35:46;;;;;;;2.13;1.05;;;30.70;45.70;;;;;;4896847;28;92201;-74
2022/07/31 15:38:12;;;;;;;1.55;0.95;;;30.60;45.60;;;;;;4898233;28;92201;-74
2022/07/31 15:40:38;;;;;;;3.63;1.20;;;30.60;44.40;;;;;;4898951;28;92351;-70
2022/07/31 15:43:03;;;;;;;4.10;1.60;;;30.40;47.70;;;;;;4898067;28;92057;-70
2022/07/31 15:45:29;;;;;;;2.20;0.88;;;30.30;46.70;;;;;;4898877;28;91947;-71
2022/07/31 15:47:55;;;;;;;2.75;0.95;;;30.30;45.20;;;;;;4890466;28;91384;-71
2022/07/31 15:50:20;;;;;;;2.17;1.00;;;30.20;45.20;;;;;;4879394;28;92134;-70
2022/07/31 15:52:48;;;;;;;2.05;0.80;;;30.20;47.30;;;;;;4879473;28;92459;-70
2022/07/31 15:55:14;;;;;;;3.00;0.90;;;30.10;46.00;;;;;;4878451;28;93250;-72
2022/07/31 15:57:40;;;;;;;1.48;0.95;;;30.00;45.30;;;;;;4878623;28;93067;-71
2022/07/31 16:00:13;;;;;;;2.50;0.70;;;29.80;48.00;;;;;;4883237;28;92248;-71
2022/07/31 16:02:41;;;;;;;1.85;0.65;;;29.80;46.60;;;;;;4897128;28;91969;-69
2022/07/31 16:05:07;;;;;;;2.42;0.80;;;29.80;45.60;;;;;;4897802;28;91981;-70
2022/07/31 16:07:33;;;;;;;2.65;0.73;;;29.40;47.00;;;;;;4897843;28;92077;-71
2022/07/31 16:09:59;;;;;;;2.13;0.63;;;29.40;46.60;;;;;;4889827;28;91985;-73
2022/07/31 16:12:25;;;;;;;1.27;0.55;;;29.60;47.00;;;;;;4860309;29;91399;-73
2022/07/31 16:14:52;;;;;;;3.80;1.05;;;29.70;46.00;;;;;;4859971;29;92202;-72
2022/07/31 16:17:18;;;;;;;3.72;1.42;;;29.80;45.90;;;;;;4860043;29;92044;-71
2022/07/31 16:19:44;;;;;;;3.30;1.27;;;29.80;46.00;;;;;;4861427;28;93083;-71
2022/07/31 16:22:11;;;;;;;3.03;1.10;;;29.80;46.70;;;;;;4893181;28;91987;-70
2022/07/31 16:24:36;;;;;;;4.57;1.33;;;29.70;48.70;;;;;;4878697;28;92229;-73
2022/07/31 16:27:02;;;;;;;1.90;0.70;;;29.60;47.30;;;;;;4878276;28;92775;-71
2022/07/31 16:29:28;;;;;;;3.58;1.02;;;29.40;48.50;;;;;;4878985;28;91981;-69
2022/07/31 16:31:54;;;;;;;5.03;0.88;;;29.40;47.60;;;;;;4878551;28;92218;-71
2022/07/31 16:34:19;;;;;;;2.10;0.90;;;29.40;48.00;;;;;;4878270;28;91937;-71
2022/07/31 16:36:46;;;;;;;2.45;0.95;;;29.50;48.50;;;;;;4878649;28;92163;-70
2022/07/31 16:39:18;;;;;;;2.63;0.88;;;29.50;50.20;;;;;;4878783;28;91913;-70
2022/07/31 16:41:43;;;;;;;2.83;0.88;;;29.50;49.10;;;;;;4878909;28;92100;-71
2022/07/31 16:44:09;;;;;;;3.13;1.00;;;29.60;47.70;;;;;;4880171;28;93704;-70
2022/07/31 16:46:35;;;;;;;2.67;1.23;;;29.60;48.80;;;;;;4897658;28;92821;-72
2022/07/31 16:49:00;;;;;;;1.90;1.05;;;29.70;48.40;;;;;;4897426;28;91966;-70
2022/07/31 16:51:26;;;;;;;3.17;0.95;;;29.60;46.90;;;;;;4898033;28;91993;-70